Time,TemperatureF,DewpointF,PressureIn,WindDirection,WindDirectionDegrees,WindSpeedMPH,WindSpeedGustMPH,Humidity,HourlyPrecipIn,Conditions,Clouds,dailyrainin,SoftwareType,DateUTC
2013-07-18 00:00:00,78.8,73.6,30.02,SSW,193,0.0,0.0,84,0.00,BKN,,0.00,WeatherDisplay:10.37,2013-07-18 04:00:00,
2013-07-18 00:10:00,78.9,73.3,30.02,SSW,193,0.0,0.0,83,0.00,BKN,,0.00,WeatherDisplay:10.37,2013-07-18 04:10:00,
2013-07-18 00:30:00,78.7,73.1,30.01,SSW,193,0.0,0.0,83,0.00,BKN,,0.00,WeatherDisplay:10.37,2013-07-18 04:30:00,
2013-07-18 00:40:00,78.7,73.1,30.01,SSW,193,0.0,0.0,83,0.00,BKN,,0.00,WeatherDisplay:10.37,2013-07-18 04:40:00,
2013-07-18 00:50:00,78.7,73.1,30.01,SSW,193,0.0,0.0,83,0.00,BKN,,0.00,WeatherDisplay:10.37,2013-07-18 04:50:00,
2013-07-18 01:00:00,78.2,73.0,30.01,SSW,193,0.0,0.0,84,0.00,BKN,,0.00,WeatherDisplay:10.37,2013-07-18 05:00:00,
2013-07-18 01:10:00,78.1,73.2,30.00,SSW,193,0.0,0.0,85,0.00,SCT,,0.00,WeatherDisplay:10.37,2013-07-18 05:10:00,
2013-07-18 01:20:00,77.9,73.0,30.00,SSW,193,0.0,0.0,85,0.00,SCT,,0.00,WeatherDisplay:10.37,2013-07-18 05:20:00,
2013-07-18 01:30:00,77.5,73.0,30.00,SSW,193,0.0,0.0,86,0.00,SCT,,0.00,WeatherDisplay:10.37,2013-07-18 05:30:00,
2013-07-18 01:40:00,77.2,72.7,30.00,SSW,193,0.0,0.0,86,0.00,SCT,,0.00,WeatherDisplay:10.37,2013-07-18 05:40:00,
2013-07-18 01:50:00,76.8,72.3,30.00,SSW,193,0.0,0.0,86,0.00,SCT,,0.00,WeatherDisplay:10.37,2013-07-18 05:50:00,
2013-07-18 02:00:00,76.6,72.4,30.00,SSW,193,0.0,0.0,87,0.00,SCT,,0.00,WeatherDisplay:10.37,2013-07-18 06:00:00,
2013-07-18 02:10:00,76.4,72.2,30.00,SSW,193,0.0,0.0,87,0.00,SCT,,0.00,WeatherDisplay:10.37,2013-07-18 06:10:00,
2013-07-18 02:20:00,76.3,72.5,30.00,SSW,193,0.0,0.0,88,0.00,SCT,,0.00,WeatherDisplay:10.37,2013-07-18 06:20:00,
2013-07-18 02:30:00,76.1,72.3,30.00,SSW,193,0.0,0.0,88,0.00,SCT,,0.00,WeatherDisplay:10.37,2013-07-18 06:30:00,
2013-07-18 02:40:00,75.9,72.1,30.00,SSW,193,0.0,0.0,88,0.00,SCT,,0.00,WeatherDisplay:10.37,2013-07-18 06:40:00,
2013-07-18 02:50:00,75.8,72.3,30.00,SSW,193,0.0,0.0,89,0.00,SCT,,0.00,WeatherDisplay:10.37,2013-07-18 06:50:00,
2013-07-18 03:00:00,75.5,72.0,30.00,SSW,193,0.0,0.0,89,0.00,SCT,,0.00,WeatherDisplay:10.37,2013-07-18 07:00:00,
2013-07-18 03:10:00,75.3,71.8,30.00,SSW,193,0.0,2.0,89,0.00,SCT,,0.00,WeatherDisplay:10.37,2013-07-18 07:10:00,
2013-07-18 03:20:00,75.6,72.1,29.99,WSW,246,0.0,3.0,89,0.00,SCT,,0.00,WeatherDisplay:10.37,2013-07-18 07:20:00,
2013-07-18 03:30:00,76.6,72.4,29.99,West,280,0.0,5.0,87,0.00,SCT,,0.00,WeatherDisplay:10.37,2013-07-18 07:30:00,
2013-07-18 03:40:00,76.9,72.4,29.99,West,262,1.0,3.0,86,0.00,SCT,,0.00,WeatherDisplay:10.37,2013-07-18 07:40:00,
2013-07-18 03:50:00,77.4,72.5,29.99,NW,305,0.0,5.0,85,0.00,SCT,,0.00,WeatherDisplay:10.37,2013-07-18 07:50:00,
2013-07-18 04:00:00,77.6,72.4,29.99,WSW,242,1.0,6.0,84,0.00,SCT,,0.00,WeatherDisplay:10.37,2013-07-18 08:00:00,
2013-07-18 04:10:00,77.8,72.6,29.99,West,268,1.0,3.0,84,0.00,SCT,,0.00,WeatherDisplay:10.37,2013-07-18 08:10:00,
2013-07-18 04:20:00,78.0,72.4,29.99,WNW,301,1.0,5.0,83,0.00,SCT,,0.00,WeatherDisplay:10.37,2013-07-18 08:20:00,
2013-07-18 04:30:00,78.1,72.5,29.99,West,262,0.0,8.0,83,0.00,SCT,,0.00,WeatherDisplay:10.37,2013-07-18 08:30:00,
2013-07-18 04:40:00,77.9,72.7,29.99,West,263,0.0,5.0,84,0.00,SCT,,0.00,WeatherDisplay:10.37,2013-07-18 08:40:00,
2013-07-18 04:50:00,77.6,72.4,29.99,West,281,0.0,5.0,84,0.00,SCT,,0.00,WeatherDisplay:10.37,2013-07-18 08:50:00,
2013-07-18 05:00:00,77.4,72.5,30.00,WSW,247,0.0,6.0,85,0.00,SCT,,0.00,WeatherDisplay:10.37,2013-07-18 09:00:00,
2013-07-18 05:10:00,77.3,72.4,30.00,West,281,0.0,6.0,85,0.00,SCT,,0.00,WeatherDisplay:10.37,2013-07-18 09:10:00,
2013-07-18 05:20:00,77.1,72.2,30.00,West,263,0.0,3.0,85,0.00,SCT,,0.00,WeatherDisplay:10.37,2013-07-18 09:20:00,
2013-07-18 05:30:00,76.5,72.3,30.00,West,262,0.0,5.0,87,0.00,SCT,,0.00,WeatherDisplay:10.37,2013-07-18 09:30:00,
2013-07-18 05:40:00,75.8,72.0,29.99,West,261,0.0,2.0,88,0.00,SCT,,0.00,WeatherDisplay:10.37,2013-07-18 09:40:00,
2013-07-18 05:50:00,75.3,71.8,30.00,West,261,0.0,0.0,89,0.00,SCT,,0.00,WeatherDisplay:10.37,2013-07-18 09:50:00,
2013-07-18 06:00:00,74.9,71.8,30.00,West,261,0.0,0.0,90,0.00,SCT,,0.00,WeatherDisplay:10.37,2013-07-18 10:00:00,
2013-07-18 06:10:00,75.1,72.0,30.00,West,261,0.0,0.0,90,0.00,FEW,,0.00,WeatherDisplay:10.37,2013-07-18 10:10:00,
2013-07-18 06:20:00,75.0,72.2,30.00,West,261,0.0,0.0,91,0.00,FEW,,0.00,WeatherDisplay:10.37,2013-07-18 10:20:00,
2013-07-18 06:30:00,75.4,72.6,30.01,West,261,0.0,0.0,91,0.00,FEW,,0.00,WeatherDisplay:10.37,2013-07-18 10:30:00,
2013-07-18 06:40:00,76.1,73.0,30.01,West,261,0.0,0.0,90,0.00,FEW,,0.00,WeatherDisplay:10.37,2013-07-18 10:40:00,
2013-07-18 06:50:00,76.9,73.7,30.01,West,261,0.0,0.0,90,0.00,FEW,,0.00,WeatherDisplay:10.37,2013-07-18 10:50:00,
2013-07-18 07:00:00,78.3,74.1,30.01,WSW,253,1.0,5.0,87,0.00,FEW,,0.00,WeatherDisplay:10.37,2013-07-18 11:00:00,
2013-07-18 07:10:00,79.5,74.6,30.02,WNW,288,1.0,5.0,85,0.00,SCT,,0.00,WeatherDisplay:10.37,2013-07-18 11:10:00,
2013-07-18 07:20:00,80.5,74.9,30.02,NNW,327,0.0,5.0,83,0.00,SCT,,0.00,WeatherDisplay:10.37,2013-07-18 11:20:00,
2013-07-18 07:30:00,80.9,75.3,30.02,WNW,290,3.0,6.0,83,0.00,SCT,,0.00,WeatherDisplay:10.37,2013-07-18 11:30:00,
2013-07-18 07:40:00,81.8,75.8,30.02,NNW,343,2.0,5.0,82,0.00,SCT,,0.00,WeatherDisplay:10.37,2013-07-18 11:40:00,
2013-07-18 07:50:00,81.9,75.5,30.02,NW,319,1.0,5.0,81,0.00,SCT,,0.00,WeatherDisplay:10.37,2013-07-18 11:50:00,
2013-07-18 08:00:00,81.8,75.4,30.02,WNW,295,1.0,3.0,81,0.00,SCT,,0.00,WeatherDisplay:10.37,2013-07-18 12:00:00,
2013-07-18 08:10:00,82.8,75.6,30.02,West,273,2.0,3.0,79,0.00,CLR,,0.00,WeatherDisplay:10.37,2013-07-18 12:10:00,
2013-07-18 08:20:00,83.2,76.0,30.02,West,273,0.0,3.0,79,0.00,CLR,,0.00,WeatherDisplay:10.37,2013-07-18 12:20:00,
2013-07-18 08:30:00,83.8,75.8,30.02,WNW,293,0.0,5.0,77,0.00,CLR,,0.00,WeatherDisplay:10.37,2013-07-18 12:30:00,
2013-07-18 08:40:00,83.3,76.5,30.02,NW,305,1.0,10.0,80,0.00,CLR,,0.00,WeatherDisplay:10.37,2013-07-18 12:40:00,
2013-07-18 08:50:00,83.8,75.8,30.02,WNW,299,3.0,8.0,77,0.00,CLR,,0.00,WeatherDisplay:10.37,2013-07-18 12:50:00,
2013-07-18 09:00:00,84.7,76.3,30.03,NNW,340,3.0,6.0,76,0.00,CLR,,0.00,WeatherDisplay:10.37,2013-07-18 13:00:00,
2013-07-18 09:10:00,85.4,76.1,30.02,NW,308,0.0,6.0,74,0.00,CLR,,0.00,WeatherDisplay:10.37,2013-07-18 13:10:00,
2013-07-18 09:20:00,85.3,76.1,30.02,NW,319,3.0,8.0,74,0.00,CLR,,0.00,WeatherDisplay:10.37,2013-07-18 13:20:00,
2013-07-18 09:30:00,85.6,76.0,30.02,NNW,340,1.0,8.0,73,0.00,CLR,,0.00,WeatherDisplay:10.37,2013-07-18 13:30:00,
2013-07-18 09:40:00,86.0,75.1,30.02,NW,308,2.0,8.0,70,0.00,CLR,,0.00,WeatherDisplay:10.37,2013-07-18 13:40:00,
2013-07-18 09:50:00,86.4,75.4,30.02,NW,308,3.0,6.0,70,0.00,CLR,,0.00,WeatherDisplay:10.37,2013-07-18 13:50:00,
2013-07-18 10:00:00,86.9,74.6,30.02,NNW,338,2.0,8.0,67,0.00,SCT,,0.00,WeatherDisplay:10.37,2013-07-18 14:00:00,
2013-07-18 10:10:00,86.2,74.4,30.02,West,275,2.0,6.0,68,0.00,SCT,,0.00,WeatherDisplay:10.37,2013-07-18 14:10:00,
2013-07-18 10:20:00,86.3,75.8,30.01,NNW,336,0.0,5.0,71,0.00,SCT,,0.00,WeatherDisplay:10.37,2013-07-18 14:20:00,
2013-07-18 10:30:00,86.5,75.1,30.01,WNW,288,1.0,5.0,69,0.00,SCT,,0.00,WeatherDisplay:10.37,2013-07-18 14:30:00,
2013-07-18 10:40:00,86.4,75.0,30.01,West,268,6.0,6.0,69,0.00,SCT,,0.00,WeatherDisplay:10.37,2013-07-18 14:40:00,
2013-07-18 10:50:00,86.7,74.9,30.01,West,277,5.0,9.0,68,0.00,SCT,,0.00,WeatherDisplay:10.37,2013-07-18 14:50:00,
2013-07-18 11:00:00,87.3,75.4,30.01,WNW,294,5.0,6.0,68,0.00,SCT,,0.00,WeatherDisplay:10.37,2013-07-18 15:00:00,
2013-07-18 11:10:00,87.5,75.6,30.01,NW,315,2.0,8.0,68,0.00,BKN,,0.00,WeatherDisplay:10.37,2013-07-18 15:10:00,
2013-07-18 11:20:00,86.5,75.1,30.01,WNW,284,6.0,9.0,69,0.00,BKN,,0.00,WeatherDisplay:10.37,2013-07-18 15:20:00,
2013-07-18 11:30:00,87.6,76.2,30.01,NW,326,2.0,8.0,69,0.00,BKN,,0.00,WeatherDisplay:10.37,2013-07-18 15:30:00,
2013-07-18 11:40:00,88.0,75.2,30.01,NW,316,1.0,9.0,66,0.00,BKN,,0.00,WeatherDisplay:10.37,2013-07-18 15:40:00,
2013-07-18 11:50:00,88.3,75.5,30.00,NW,309,3.0,9.0,66,0.00,BKN,,0.00,WeatherDisplay:10.37,2013-07-18 15:50:00,
2013-07-18 12:00:00,88.2,73.0,30.00,West,272,6.0,16.0,61,0.00,BKN,,0.00,WeatherDisplay:10.37,2013-07-18 16:00:00,
2013-07-18 12:10:00,88.4,73.7,30.00,West,269,6.0,12.0,62,0.00,BKN,,0.00,WeatherDisplay:10.37,2013-07-18 16:10:00,
2013-07-18 12:20:00,89.0,74.3,30.00,NW,305,10.0,14.0,62,0.00,BKN,,0.00,WeatherDisplay:10.37,2013-07-18 16:20:00,
2013-07-18 12:30:00,89.2,73.5,29.99,NW,316,6.0,12.0,60,0.00,BKN,,0.00,WeatherDisplay:10.37,2013-07-18 16:30:00,
2013-07-18 12:40:00,89.6,74.4,29.99,WNW,302,7.0,15.0,61,0.00,BKN,,0.00,WeatherDisplay:10.37,2013-07-18 16:40:00,
2013-07-18 12:50:00,89.7,73.5,29.99,NW,318,8.0,18.0,59,0.00,BKN,,0.00,WeatherDisplay:10.37,2013-07-18 16:50:00,
2013-07-18 13:00:00,89.9,74.2,29.99,NW,324,9.0,14.0,60,0.00,BKN,,0.00,WeatherDisplay:10.37,2013-07-18 17:00:00,
2013-07-18 13:10:00,89.5,73.8,29.99,NW,306,3.0,12.0,60,0.00,SCT,,0.00,WeatherDisplay:10.37,2013-07-18 17:10:00,
2013-07-18 13:20:00,90.4,73.1,29.99,NW,304,9.0,18.0,57,0.00,SCT,,0.00,WeatherDisplay:10.37,2013-07-18 17:20:00,
2013-07-18 13:30:00,91.3,72.9,29.99,NW,320,10.0,15.0,55,0.00,SCT,,0.00,WeatherDisplay:10.37,2013-07-18 17:30:00,
2013-07-18 13:40:00,90.8,71.8,29.98,West,275,8.0,15.0,54,0.00,SCT,,0.00,WeatherDisplay:10.37,2013-07-18 17:40:00,
2013-07-18 13:50:00,91.7,72.7,29.98,WNW,302,13.0,20.0,54,0.00,SCT,,0.00,WeatherDisplay:10.37,2013-07-18 17:50:00,
2013-07-18 14:00:00,91.5,72.0,29.98,WNW,292,7.0,18.0,53,0.00,SCT,,0.00,WeatherDisplay:10.37,2013-07-18 18:00:00,
2013-07-18 14:10:00,91.7,73.3,29.97,NW,321,6.0,20.0,55,0.00,FEW,,0.00,WeatherDisplay:10.37,2013-07-18 18:10:00,
2013-07-18 14:20:00,91.7,72.7,29.97,WNW,286,6.0,14.0,54,0.00,FEW,,0.00,WeatherDisplay:10.37,2013-07-18 18:20:00,
2013-07-18 14:30:00,92.1,73.6,29.96,NW,323,7.0,9.0,55,0.00,FEW,,0.00,WeatherDisplay:10.37,2013-07-18 18:30:00,
2013-07-18 14:40:00,91.2,72.8,29.96,NW,322,8.0,12.0,55,0.00,FEW,,0.00,WeatherDisplay:10.37,2013-07-18 18:40:00,
2013-07-18 14:50:00,91.5,73.1,29.96,WNW,300,7.0,10.0,55,0.00,FEW,,0.00,WeatherDisplay:10.37,2013-07-18 18:50:00,
2013-07-18 15:00:00,91.8,72.8,29.95,WNW,292,7.0,10.0,54,0.00,FEW,,0.00,WeatherDisplay:10.37,2013-07-18 19:00:00,
2013-07-18 15:10:00,90.9,72.0,29.95,West,281,7.0,24.0,54,0.00,SCT,,0.00,WeatherDisplay:10.37,2013-07-18 19:10:00,
2013-07-18 15:20:00,91.3,71.2,29.95,WNW,285,6.0,15.0,52,0.00,SCT,,0.00,WeatherDisplay:10.37,2013-07-18 19:20:00,
2013-07-18 15:30:00,92.0,71.3,29.95,WNW,287,9.0,16.0,51,0.00,SCT,,0.00,WeatherDisplay:10.37,2013-07-18 19:30:00,
2013-07-18 15:40:00,92.7,72.5,29.95,West,276,9.0,18.0,52,0.00,SCT,,0.00,WeatherDisplay:10.37,2013-07-18 19:40:00,
2013-07-18 15:50:00,92.9,72.1,29.94,WNW,291,9.0,15.0,51,0.00,SCT,,0.00,WeatherDisplay:10.37,2013-07-18 19:50:00,
2013-07-18 16:00:00,92.5,72.3,29.94,WSW,258,7.0,16.0,52,0.00,SCT,,0.00,WeatherDisplay:10.37,2013-07-18 20:00:00,
2013-07-18 16:10:00,92.5,70.6,29.93,West,274,8.0,22.0,49,0.00,SCT,,0.00,WeatherDisplay:10.37,2013-07-18 20:10:00,
2013-07-18 16:20:00,92.6,70.7,29.93,WNW,283,7.0,16.0,49,0.00,SCT,,0.00,WeatherDisplay:10.37,2013-07-18 20:20:00,
2013-07-18 16:30:00,92.5,71.2,29.93,WNW,303,5.0,14.0,50,0.00,SCT,,0.00,WeatherDisplay:10.37,2013-07-18 20:30:00,
2013-07-18 16:40:00,93.0,71.6,29.92,West,266,9.0,14.0,50,0.00,SCT,,0.00,WeatherDisplay:10.37,2013-07-18 20:40:00,
2013-07-18 16:50:00,92.5,71.1,29.92,WNW,282,9.0,14.0,50,0.00,SCT,,0.00,WeatherDisplay:10.37,2013-07-18 20:50:00,
2013-07-18 17:00:00,92.4,71.0,29.92,WSW,256,2.0,14.0,50,0.00,SCT,,0.00,WeatherDisplay:10.37,2013-07-18 21:00:00,
2013-07-18 17:10:00,93.4,72.0,29.91,WNW,297,6.0,9.0,50,0.00,SCT,,0.00,WeatherDisplay:10.37,2013-07-18 21:10:00,
2013-07-18 17:20:00,92.7,72.5,29.91,WNW,283,5.0,14.0,52,0.00,SCT,,0.00,WeatherDisplay:10.37,2013-07-18 21:20:00,
2013-07-18 17:30:00,92.5,71.8,29.91,West,281,10.0,12.0,51,0.00,SCT,,0.00,WeatherDisplay:10.37,2013-07-18 21:30:00,
2013-07-18 17:40:00,91.8,71.7,29.91,WSW,250,7.0,12.0,52,0.00,SCT,,0.00,WeatherDisplay:10.37,2013-07-18 21:40:00,
2013-07-18 17:50:00,91.5,72.5,29.92,WNW,292,7.0,12.0,54,0.00,SCT,,0.00,WeatherDisplay:10.37,2013-07-18 21:50:00,
2013-07-18 18:00:00,90.9,72.0,29.92,WSW,258,6.0,10.0,54,0.00,SCT,,0.00,WeatherDisplay:10.37,2013-07-18 22:00:00,
2013-07-18 18:10:00,90.7,72.3,29.92,West,275,6.0,12.0,55,0.00,BKN,,0.00,WeatherDisplay:10.37,2013-07-18 22:10:00,
2013-07-18 18:20:00,90.1,72.9,29.93,WNW,293,2.0,8.0,57,0.00,BKN,,0.00,WeatherDisplay:10.37,2013-07-18 22:20:00,
2013-07-18 18:30:00,89.9,73.7,29.94,WSW,243,0.0,8.0,59,0.00,BKN,,0.00,WeatherDisplay:10.37,2013-07-18 22:30:00,
2013-07-18 18:40:00,90.2,74.0,29.94,WNW,286,2.0,8.0,59,0.00,BKN,,0.00,WeatherDisplay:10.37,2013-07-18 22:40:00,
2013-07-18 18:50:00,90.2,73.4,29.94,West,266,9.0,12.0,58,0.00,BKN,,0.00,WeatherDisplay:10.37,2013-07-18 22:50:00,
2013-07-18 19:00:00,89.8,73.0,29.93,West,260,2.0,8.0,58,0.00,BKN,,0.00,WeatherDisplay:10.37,2013-07-18 23:00:00,
2013-07-18 19:10:00,89.6,72.9,29.93,WNW,301,1.0,12.0,58,0.00,BKN,,0.00,WeatherDisplay:10.37,2013-07-18 23:10:00,
2013-07-18 19:20:00,89.2,72.5,29.93,WNW,291,5.0,8.0,58,0.00,BKN,,0.00,WeatherDisplay:10.37,2013-07-18 23:20:00,
2013-07-18 19:30:00,88.6,72.9,29.94,WSW,258,2.0,6.0,60,0.00,BKN,,0.00,WeatherDisplay:10.37,2013-07-18 23:30:00,
2013-07-18 19:40:00,87.6,72.9,29.93,West,275,0.0,3.0,62,0.00,BKN,,0.00,WeatherDisplay:10.37,2013-07-18 23:40:00,
2013-07-18 19:50:00,86.6,73.4,29.93,WNW,282,0.0,3.0,65,0.00,BKN,,0.00,WeatherDisplay:10.37,2013-07-18 23:50:00,
2013-07-18 20:00:00,86.0,73.8,29.93,West,281,0.0,5.0,67,0.00,BKN,,0.00,WeatherDisplay:10.37,2013-07-19 00:00:00,
2013-07-18 20:10:00,85.2,73.4,29.93,West,281,0.0,3.0,68,0.00,BKN,,0.00,WeatherDisplay:10.37,2013-07-19 00:10:00,
2013-07-18 20:20:00,84.4,73.1,29.93,West,281,0.0,0.0,69,0.00,BKN,,0.00,WeatherDisplay:10.37,2013-07-19 00:20:00,
2013-07-18 20:30:00,83.6,72.8,29.93,West,281,0.0,3.0,70,0.00,BKN,,0.00,WeatherDisplay:10.37,2013-07-19 00:30:00,
2013-07-18 20:40:00,83.0,72.6,29.93,West,281,0.0,0.0,71,0.00,BKN,,0.00,WeatherDisplay:10.37,2013-07-19 00:40:00,
2013-07-18 20:50:00,82.7,72.7,29.93,West,281,0.0,0.0,72,0.00,BKN,,0.00,WeatherDisplay:10.37,2013-07-19 00:50:00,
2013-07-18 21:00:00,82.2,72.3,29.92,West,281,0.0,0.0,72,0.00,BKN,,0.00,WeatherDisplay:10.37,2013-07-19 01:00:00,
2013-07-18 21:10:00,81.5,72.4,29.92,West,281,0.0,2.0,74,0.00,BKN,,0.00,WeatherDisplay:10.37,2013-07-19 01:10:00,
2013-07-18 21:20:00,81.2,72.5,29.93,West,281,0.0,0.0,75,0.00,BKN,,0.00,WeatherDisplay:10.37,2013-07-19 01:20:00,
2013-07-18 21:30:00,80.6,72.4,29.93,West,281,0.0,0.0,76,0.00,BKN,,0.00,WeatherDisplay:10.37,2013-07-19 01:30:00,
2013-07-18 21:40:00,80.6,72.7,29.94,West,281,0.0,0.0,77,0.00,BKN,,0.00,WeatherDisplay:10.37,2013-07-19 01:40:00,
2013-07-18 21:50:00,81.2,72.9,29.94,West,281,0.0,0.0,76,0.00,BKN,,0.00,WeatherDisplay:10.37,2013-07-19 01:50:00,
2013-07-18 22:00:00,81.7,73.3,29.94,West,281,0.0,0.0,76,0.00,BKN,,0.00,WeatherDisplay:10.37,2013-07-19 02:00:00,
2013-07-18 22:10:00,81.9,73.6,29.93,West,281,0.0,2.0,76,0.00,BKN,,0.00,WeatherDisplay:10.37,2013-07-19 02:10:00,
2013-07-18 22:20:00,81.5,73.6,29.93,West,281,0.0,0.0,77,0.00,BKN,,0.00,WeatherDisplay:10.37,2013-07-19 02:20:00,
2013-07-18 22:30:00,81.2,73.7,29.93,West,281,0.0,0.0,78,0.00,BKN,,0.00,WeatherDisplay:10.37,2013-07-19 02:30:00,
2013-07-18 22:40:00,80.7,73.6,29.93,West,281,0.0,0.0,79,0.00,BKN,,0.00,WeatherDisplay:10.37,2013-07-19 02:40:00,
2013-07-18 22:50:00,80.2,73.5,29.93,West,281,0.0,0.0,80,0.00,BKN,,0.00,WeatherDisplay:10.37,2013-07-19 02:50:00,
2013-07-18 23:00:00,79.5,73.2,29.92,West,281,0.0,0.0,81,0.00,BKN,,0.00,WeatherDisplay:10.37,2013-07-19 03:00:00,
2013-07-18 23:10:00,79.0,73.0,29.92,West,281,0.0,0.0,82,0.00,BKN,,0.00,WeatherDisplay:10.37,2013-07-19 03:10:00,
2013-07-18 23:20:00,78.6,73.0,29.92,West,281,0.0,0.0,83,0.00,BKN,,0.00,WeatherDisplay:10.37,2013-07-19 03:20:00,
2013-07-18 23:30:00,78.4,73.2,29.92,West,281,0.0,0.0,84,0.00,BKN,,0.00,WeatherDisplay:10.37,2013-07-19 03:30:00,
2013-07-18 23:40:00,78.4,73.2,29.92,West,281,0.0,0.0,84,0.00,BKN,,0.00,WeatherDisplay:10.37,2013-07-19 03:40:00,
2013-07-18 23:50:00,78.4,73.1,29.92,West,281,0.0,0.0,84,0.00,BKN,,0.00,WeatherDisplay:10.37,2013-07-19 03:50:00,